ADDS METAR Data INFO
IDs: Format: Raw Decoded Include TAF

Data at: 1457 UTC 11 Dec 2017

KGPH 111455Z AUTO 27005KT 10SM CLR 06/M07 A2992 RMK AO2
KGPH 111435Z AUTO 29008KT 10SM CLR 04/M06 A2994 RMK AO2
KGPH 111355Z AUTO 00000KT 10SM CLR M03/M06 A2994 RMK AO2
KGPH 111335Z AUTO 00000KT 10SM CLR M03/M06 A2995 RMK AO2
KGPH 111315Z AUTO 00000KT 10SM CLR M03/M06 A2995 RMK AO2
KGPH 111255Z AUTO 00000KT 10SM CLR M03/M06 A2994 RMK AO2
KGPH 111235Z AUTO 00000KT 10SM CLR M03/M06 A2995 RMK AO2
KGPH 111215Z AUTO 00000KT 10SM CLR M04/M06 A2995 RMK AO2
KGPH 111155Z AUTO 00000KT 10SM CLR M04/M06 A2997 RMK AO2
KGPH 111135Z AUTO 00000KT 10SM CLR M05/M07 A2997 RMK AO2
KGPH 111115Z AUTO 00000KT 10SM CLR M05/M07 A2999 RMK AO2
KGPH 111055Z AUTO 00000KT 10SM CLR M05/M07 A2998 RMK AO2
KGPH 111035Z AUTO 00000KT 10SM CLR M04/M06 A2999 RMK AO2
KGPH 111015Z AUTO 00000KT 10SM CLR M03/M06 A3000 RMK AO2
KGPH 110955Z AUTO 00000KT 10SM CLR M03/M06 A3000 RMK AO2
KGPH 110935Z AUTO 00000KT 10SM CLR M04/M06 A3002 RMK AO2
KGPH 110915Z AUTO 00000KT 10SM M03/M06 A3002 RMK AO2
KGPH 110855Z AUTO 00000KT 10SM CLR M04/M06 A3004 RMK AO2
KGPH 110835Z AUTO 00000KT 10SM CLR M04/M06 A3004 RMK AO2
KGPH 110815Z AUTO 00000KT 10SM CLR M03/M06 A3005 RMK AO2
KGPH 110755Z AUTO 00000KT 10SM CLR M03/M06 A3006 RMK AO2
KGPH 110735Z AUTO 00000KT 10SM CLR M03/M06 A3008 RMK AO2
KGPH 110715Z AUTO 00000KT 10SM CLR M03/M06 A3009 RMK AO2
KGPH 110655Z AUTO 00000KT 10SM CLR M03/M06 A3010 RMK AO2
KGPH 110635Z AUTO 00000KT 10SM CLR M03/M06 A3010 RMK AO2
KGPH 110615Z AUTO 00000KT 10SM CLR M02/M05 A3012 RMK AO2
KGPH 110555Z AUTO 00000KT 10SM CLR M02/M05 A3013 RMK AO2
KGPH 110535Z AUTO 00000KT 10SM CLR M02/M05 A3013 RMK AO2
KGPH 110515Z AUTO 00000KT 10SM CLR M02/M06 A3013 RMK AO2
KGPH 110455Z AUTO 00000KT 10SM CLR M01/M05 A3014 RMK AO2
KGPH 110435Z AUTO 00000KT 10SM CLR M01/M05 A3014 RMK AO2
KGPH 110415Z AUTO 00000KT 10SM CLR M01/M05 A3014 RMK AO2
KGPH 110355Z AUTO 00000KT 10SM CLR 00/M05 A3014 RMK AO2
KGPH 110335Z AUTO 00000KT 10SM CLR 00/M05 A3014 RMK AO2
KGPH 110315Z AUTO 00000KT 10SM CLR 00/M05 A3013 RMK AO2
KGPH 110255Z AUTO 00000KT 10SM CLR 00/M05 A3014 RMK AO2
KGPH 110235Z AUTO 00000KT 10SM CLR 00/M05 A3014 RMK AO2
KGPH 110215Z AUTO 00000KT 10SM CLR 00/M05 A3014 RMK AO2
KGPH 110155Z AUTO 00000KT 10SM CLR 01/M05 A3015 RMK AO2
KGPH 110135Z AUTO 00000KT 10SM CLR 02/M05 A3014 RMK AO2
KGPH 110115Z AUTO 00000KT 10SM 03/M05 A3013 RMK AO2
KGPH 110055Z AUTO 00000KT 10SM CLR 03/M05 A3013 RMK AO2
KGPH 110035Z AUTO 00000KT 10SM CLR 05/M04 A3013 RMK AO2
KGPH 110015Z AUTO 00000KT 10SM CLR 07/M04 A3013 RMK AO2
KGPH 102355Z AUTO 00000KT 10SM CLR 07/M05 A3013 RMK AO2
KGPH 102335Z AUTO 00000KT 10SM CLR 09/M05 A3013 RMK AO2
KGPH 102315Z AUTO 00000KT 10SM CLR 11/M05 A3012 RMK AO2
KGPH 102255Z AUTO 31004KT 10SM CLR 12/M05 A3012 RMK AO2
KGPH 102235Z AUTO 30006KT 10SM CLR 12/M05 A3012 RMK AO2
KGPH 102215Z AUTO 31009KT 10SM CLR 12/M05 A3011 RMK AO2
KGPH 102155Z AUTO 30007KT 10SM CLR 12/M04 A3011 RMK AO2
KGPH 102135Z AUTO 29008G15KT 10SM CLR 12/M04 A3011 RMK AO2
KGPH 102115Z AUTO 30010G15KT 270V330 10SM CLR 12/M03 A3010 RMK AO2
KGPH 102055Z AUTO 30010G14KT 10SM CLR 12/M04 A3010 RMK AO2
KGPH 102035Z AUTO 28010KT 10SM CLR 12/M04 A3010 RMK AO2
KGPH 102015Z AUTO 30011KT 10SM CLR 12/M04 A3010 RMK AO2
KGPH 101955Z AUTO 32010KT 10SM CLR 12/M04 A3010 RMK AO2
KGPH 101935Z AUTO 33009G15KT 10SM CLR 11/M04 A3010 RMK AO2
KGPH 101915Z AUTO 30010G15KT 10SM CLR 11/M04 A3010 RMK AO2
KGPH 101855Z AUTO 30007G14KT 10SM CLR 11/M04 A3010 RMK AO2
KGPH 101835Z AUTO 29009G16KT 10SM CLR 10/M05 A3010 RMK AO2
KGPH 101815Z AUTO 31011KT 10SM CLR 10/M05 A3010 RMK AO2
KGPH 101755Z AUTO 32010KT 10SM CLR 09/M05 A3011 RMK AO2
KGPH 101735Z AUTO 31013G18KT 10SM 09/M05 A3011 RMK AO2
KGPH 101715Z AUTO 31010KT 10SM CLR 09/M04 A3011 RMK AO2
KGPH 101655Z AUTO 31013G18KT 10SM CLR 08/M04 A3011 RMK AO2
KGPH 101635Z AUTO 30007KT 10SM CLR 07/M04 A3011 RMK AO2
KGPH 101615Z AUTO 28008KT 10SM CLR 06/M04 A3011 RMK AO2
KGPH 101555Z AUTO 32009KT 10SM CLR 06/M04 A3011 RMK AO2
KGPH 101535Z AUTO 31009KT 280V340 10SM CLR 05/M04 A3010 RMK AO2
KGPH 101515Z AUTO 31005KT 10SM CLR 04/M04 A3009 RMK AO2
KGPH 101455Z AUTO 00000KT 10SM CLR 02/M05 A3008 RMK AO2
KGPH 101435Z AUTO 00000KT 10SM CLR 01/M05 A3008 RMK AO2
KGPH 101415Z AUTO 00000KT 10SM CLR 00/M06 A3007 RMK AO2
KGPH 101355Z AUTO 00000KT 10SM CLR 00/M06 A3007 RMK AO2
KGPH 101335Z AUTO 00000KT 10SM CLR 00/M06 A3007 RMK AO2
KGPH 101315Z AUTO 00000KT 10SM CLR 00/M06 A3006 RMK AO2
KGPH 101255Z AUTO 00000KT 10SM CLR 00/M06 A3006 RMK AO2
KGPH 101235Z AUTO 00000KT 10SM CLR M02/M06 A3006 RMK AO2
KGPH 101215Z AUTO 00000KT 10SM CLR M03/M07 A3006 RMK AO2
KGPH 101155Z AUTO 00000KT 10SM CLR M05/M07 A3005 RMK AO2
KGPH 101135Z AUTO 00000KT 10SM CLR M04/M07 A3005 RMK AO2
KGPH 101115Z AUTO 00000KT 10SM CLR M04/M07 A3005 RMK AO2
KGPH 101055Z AUTO 00000KT 10SM CLR M04/M07 A3005 RMK AO2
KGPH 101035Z AUTO 00000KT 10SM CLR M05/M07 A3005 RMK AO2
KGPH 101015Z AUTO 00000KT 10SM CLR M05/M07 A3006 RMK AO2
KGPH 100955Z AUTO 00000KT 10SM CLR M04/M07 A3007 RMK AO2
KGPH 100935Z AUTO 14004KT 10SM CLR M05/M07 A3007 RMK AO2
KGPH 100915Z AUTO 13004KT 10SM CLR M05/M07 A3009 RMK AO2
KGPH 100855Z AUTO 14004KT 10SM CLR M05/M07 A3010 RMK AO2
KGPH 100835Z AUTO 00000KT 10SM M06/M08 A3012 RMK AO2
KGPH 100815Z AUTO 00000KT 10SM CLR M06/M08 A3012 RMK AO2
KGPH 100755Z AUTO 00000KT 10SM CLR M06/M08 A3013 RMK AO2
KGPH 100735Z AUTO 00000KT 10SM CLR M06/M08 A3014 RMK AO2
KGPH 100715Z AUTO 13003KT 10SM CLR M06/M08 A3015 RMK AO2
KGPH 100655Z AUTO 00000KT 10SM CLR M06/M08 A3016 RMK AO2
KGPH 100635Z AUTO 00000KT 10SM M06/M08 A3016 RMK AO2
KGPH 100615Z AUTO 00000KT 10SM M06/M08 A3016 RMK AO2
KGPH 100555Z AUTO 00000KT 10SM CLR M06/M08 A3016 RMK AO2
KGPH 100535Z AUTO 12003KT 10SM CLR M06/M08 A3018 RMK AO2
KGPH 100515Z AUTO 00000KT 10SM CLR M06/M08 A3018 RMK AO2
KGPH 100455Z AUTO 00000KT 10SM CLR M06/M08 A3018 RMK AO2
KGPH 100435Z AUTO 00000KT 10SM CLR M06/M08 A3019 RMK AO2
KGPH 100415Z AUTO 00000KT 10SM CLR M06/M08 A3020 RMK AO2
KGPH 100355Z AUTO 00000KT 10SM CLR M06/M08 A3021 RMK AO2
KGPH 100335Z AUTO 00000KT 10SM CLR M05/M08 A3021 RMK AO2
KGPH 100315Z AUTO 00000KT 10SM CLR M05/M08 A3021 RMK AO2